Time;durP1;ratioP1;P1;durP2;ratioP2;P2;SDS_P1;SDS_P2;PMS_P1;PMS_P2;Temp;Humidity;BMP_temperature;BMP_pressure;BME280_temperature;BME280_humidity;BME280_pressure;Samples;Min_cycle;Max_cycle;Signal;HPM_P1;HPM_P2
2021/09/28 00:00:21;;;;;;;2.20;0.75;;;;;;;;;;5045385;28;20535;-77
2021/09/28 00:03:05;;;;;;;3.97;0.90;;;;;;;;;;5047001;28;20099;-76
2021/09/28 00:05:50;;;;;;;2.67;0.70;;;;;;;;;;5049183;28;20070;-77
2021/09/28 00:08:36;;;;;;;3.53;1.20;;;;;;;;;;5057425;28;20046;-77
2021/09/28 00:11:21;;;;;;;2.65;0.90;;;;;;;;;;5063029;28;20472;-76
2021/09/28 00:14:05;;;;;;;1.27;0.60;;;;;;;;;;5055513;28;20048;-77
2021/09/28 00:16:50;;;;;;;2.35;0.60;;;;;;;;;;5042734;28;20039;-76
2021/09/28 00:19:34;;;;;;;2.17;0.70;;;;;;;;;;5058949;28;20039;-76
2021/09/28 00:22:19;;;;;;;2.78;1.00;;;;;;;;;;5044924;28;20094;-76
2021/09/28 00:25:04;;;;;;;1.55;0.60;;;;;;;;;;5063864;28;20035;-76
2021/09/28 00:27:49;;;;;;;3.85;0.80;;;;;;;;;;5056018;28;20095;-76
2021/09/28 00:30:33;;;;;;;1.67;0.60;;;;;;;;;;5050387;28;20591;-76
2021/09/28 00:33:18;;;;;;;3.10;0.70;;;;;;;;;;5053265;28;20043;-76
2021/09/28 00:36:03;;;;;;;2.30;0.70;;;;;;;;;;5035455;28;20706;-77
2021/09/28 00:38:48;;;;;;;3.70;0.80;;;;;;;;;;5058382;28;20044;-76
2021/09/28 00:41:33;;;;;;;2.05;0.70;;;;;;;;;;5045082;28;20163;-76
2021/09/28 00:44:28;;;;;;;1.90;0.60;;;;;;;;;;5048323;28;20047;-76
2021/09/28 00:47:13;;;;;;;1.63;0.50;;;;;;;;;;5047326;28;20094;-77
2021/09/28 00:49:58;;;;;;;3.28;0.80;;;;;;;;;;5044503;28;20043;-76
2021/09/28 00:52:43;;;;;;;3.25;0.70;;;;;;;;;;5049277;28;20040;-78
2021/09/28 00:55:27;;;;;;;5.68;1.88;;;;;;;;;;5048071;28;20044;-75
2021/09/28 00:58:12;;;;;;;2.13;0.70;;;;;;;;;;5061850;28;20393;-76
2021/09/28 01:01:01;;;;;;;1.98;0.80;;;;;;;;;;5048730;28;20397;-77
2021/09/28 01:03:46;;;;;;;2.58;0.90;;;;;;;;;;5044192;28;20076;-76
2021/09/28 01:06:31;;;;;;;1.27;0.60;;;;;;;;;;5062443;28;20038;-76
2021/09/28 01:09:15;;;;;;;3.05;0.77;;;;;;;;;;5053014;28;20108;-77
2021/09/28 01:12:00;;;;;;;1.42;0.52;;;;;;;;;;5053362;28;20047;-76
2021/09/28 01:14:45;;;;;;;2.33;0.82;;;;;;;;;;5059267;28;20093;-76
2021/09/28 01:17:30;;;;;;;4.32;0.88;;;;;;;;;;5064366;28;20899;-76
2021/09/28 01:20:14;;;;;;;2.15;0.82;;;;;;;;;;5049809;28;20098;-76
2021/09/28 01:22:59;;;;;;;3.33;0.80;;;;;;;;;;5044918;28;20055;-76
2021/09/28 01:25:43;;;;;;;2.70;0.90;;;;;;;;;;5058020;28;20043;-76
2021/09/28 01:28:28;;;;;;;2.22;0.70;;;;;;;;;;5048021;28;20072;-75
2021/09/28 01:31:13;;;;;;;3.45;0.73;;;;;;;;;;5056687;28;20064;-76
2021/09/28 01:33:57;;;;;;;2.90;0.70;;;;;;;;;;5043846;28;20064;-77
2021/09/28 01:36:43;;;;;;;2.28;0.80;;;;;;;;;;5041607;28;20082;-77
2021/09/28 01:39:27;;;;;;;1.55;0.80;;;;;;;;;;5054290;28;20090;-75
2021/09/28 01:42:12;;;;;;;2.33;0.70;;;;;;;;;;5050276;28;20152;-77
2021/09/28 01:44:56;;;;;;;3.17;0.70;;;;;;;;;;5049197;28;20048;-76
2021/09/28 01:47:41;;;;;;;3.13;0.70;;;;;;;;;;5054995;28;20044;-76
2021/09/28 01:50:25;;;;;;;2.17;0.60;;;;;;;;;;5068678;28;20158;-76
2021/09/28 01:53:10;;;;;;;2.10;0.60;;;;;;;;;;5057963;28;20089;-76
2021/09/28 01:55:55;;;;;;;1.67;0.60;;;;;;;;;;5061438;28;20063;-75
2021/09/28 01:58:39;;;;;;;2.72;0.75;;;;;;;;;;5063438;28;20035;-76
2021/09/28 02:01:24;;;;;;;2.10;0.70;;;;;;;;;;5069189;28;20039;-76
2021/09/28 02:04:08;;;;;;;1.90;0.75;;;;;;;;;;5063712;28;20128;-76
2021/09/28 02:06:52;;;;;;;1.30;0.63;;;;;;;;;;5067768;28;20066;-76
2021/09/28 02:09:37;;;;;;;2.65;0.70;;;;;;;;;;5072421;28;20027;-75
2021/09/28 02:12:21;;;;;;;2.53;0.60;;;;;;;;;;5075515;28;20063;-76
2021/09/28 02:15:06;;;;;;;2.75;0.63;;;;;;;;;;5049097;28;20048;-76
2021/09/28 02:17:50;;;;;;;2.33;0.80;;;;;;;;;;5049985;28;20044;-75
2021/09/28 02:20:35;;;;;;;2.22;0.70;;;;;;;;;;5042437;28;20067;-74
2021/09/28 02:23:20;;;;;;;3.45;0.73;;;;;;;;;;5041053;28;20056;-76
2021/09/28 02:26:04;;;;;;;4.25;0.77;;;;;;;;;;5050857;28;20195;-76
2021/09/28 02:28:49;;;;;;;2.47;0.70;;;;;;;;;;5053663;28;20047;-75
2021/09/28 02:31:33;;;;;;;3.25;0.63;;;;;;;;;;5050269;28;20047;-75
2021/09/28 02:34:18;;;;;;;2.13;0.60;;;;;;;;;;5052966;28;20047;-75
2021/09/28 02:37:08;;;;;;;2.42;0.73;;;;;;;;;;5050738;28;20766;-75
2021/09/28 02:39:53;;;;;;;3.13;0.70;;;;;;;;;;5068135;28;20039;-75
2021/09/28 02:42:38;;;;;;;2.83;0.77;;;;;;;;;;5065016;28;20730;-75
2021/09/28 02:45:22;;;;;;;2.58;0.60;;;;;;;;;;5048362;28;20039;-76
2021/09/28 02:48:07;;;;;;;3.70;0.80;;;;;;;;;;5039740;28;20040;-75
2021/09/28 02:50:52;;;;;;;3.75;0.73;;;;;;;;;;5064846;28;20091;-75
2021/09/28 02:53:37;;;;;;;2.50;0.70;;;;;;;;;;5062343;28;20083;-76
2021/09/28 02:56:21;;;;;;;2.05;0.90;;;;;;;;;;5053981;28;20047;-75
2021/09/28 02:59:06;;;;;;;2.05;0.45;;;;;;;;;;5051053;28;20051;-76
2021/09/28 03:01:51;;;;;;;3.67;0.80;;;;;;;;;;5053568;28;20039;-77
2021/09/28 03:04:35;;;;;;;2.10;0.80;;;;;;;;;;5049508;28;20106;-74
2021/09/28 03:07:20;;;;;;;2.83;0.80;;;;;;;;;;5045695;28;20040;-75
2021/09/28 03:10:05;;;;;;;2.05;0.70;;;;;;;;;;5056085;28;20043;-75
2021/09/28 03:12:49;;;;;;;3.85;0.93;;;;;;;;;;5066745;28;20035;-74
2021/09/28 03:15:34;;;;;;;3.50;0.63;;;;;;;;;;5067675;28;20125;-75
2021/09/28 03:18:18;;;;;;;2.42;0.80;;;;;;;;;;5060815;28;20064;-75
2021/09/28 03:21:03;;;;;;;2.35;0.70;;;;;;;;;;5052562;28;20048;-75
2021/09/28 03:23:47;;;;;;;4.47;0.80;;;;;;;;;;5045100;28;20455;-74
2021/09/28 03:26:32;;;;;;;1.80;0.80;;;;;;;;;;5047827;28;20036;-75
2021/09/28 03:29:17;;;;;;;3.15;0.60;;;;;;;;;;5048877;28;20509;-74
2021/09/28 03:32:01;;;;;;;2.85;0.90;;;;;;;;;;5047260;28;20552;-75
2021/09/28 03:34:46;;;;;;;1.83;0.63;;;;;;;;;;5047288;28;20052;-74
2021/09/28 03:37:30;;;;;;;2.33;0.70;;;;;;;;;;5047737;28;20040;-75
2021/09/28 03:40:15;;;;;;;3.15;0.70;;;;;;;;;;5046831;28;20048;-74
2021/09/28 03:42:59;;;;;;;1.77;0.70;;;;;;;;;;5052753;28;20071;-74
2021/09/28 03:45:44;;;;;;;2.15;0.65;;;;;;;;;;5062693;28;20196;-75
2021/09/28 03:48:28;;;;;;;2.75;0.60;;;;;;;;;;5049345;28;20047;-75
2021/09/28 03:51:12;;;;;;;2.67;0.80;;;;;;;;;;5065398;28;20174;-76
2021/09/28 03:53:57;;;;;;;3.90;0.85;;;;;;;;;;5051767;28;20098;-76
2021/09/28 03:56:42;;;;;;;3.75;0.73;;;;;;;;;;5046871;28;20090;-75
2021/09/28 03:59:26;;;;;;;2.10;0.60;;;;;;;;;;5050790;28;20035;-76
2021/09/28 04:02:11;;;;;;;3.78;0.80;;;;;;;;;;5066753;28;20075;-75
2021/09/28 04:04:55;;;;;;;3.30;0.70;;;;;;;;;;5058941;28;20044;-76
2021/09/28 04:07:40;;;;;;;2.97;0.80;;;;;;;;;;5048209;28;20083;-75
2021/09/28 04:10:24;;;;;;;1.95;0.73;;;;;;;;;;5056861;28;20082;-75
2021/09/28 04:13:10;;;;;;;3.20;0.90;;;;;;;;;;5052703;28;20042;-76
2021/09/28 04:15:55;;;;;;;2.38;0.90;;;;;;;;;;5051951;28;20040;-75
2021/09/28 04:18:40;;;;;;;5.70;0.80;;;;;;;;;;5047166;28;20103;-76
2021/09/28 04:21:26;;;;;;;1.65;0.60;;;;;;;;;;5048312;28;20887;-76
2021/09/28 04:24:12;;;;;;;2.83;0.70;;;;;;;;;;5047694;28;20079;-76
2021/09/28 04:26:56;;;;;;;5.32;0.90;;;;;;;;;;5066109;28;20043;-75
2021/09/28 04:29:40;;;;;;;2.88;0.70;;;;;;;;;;5061753;28;20078;-75
2021/09/28 04:32:25;;;;;;;3.55;1.00;;;;;;;;;;5047480;28;20668;-75
2021/09/28 04:35:09;;;;;;;2.40;0.70;;;;;;;;;;5055717;28;20108;-76
2021/09/28 04:37:54;;;;;;;3.22;0.77;;;;;;;;;;5067165;28;20043;-76
2021/09/28 04:40:39;;;;;;;2.80;0.80;;;;;;;;;;5066896;28;20741;-75
2021/09/28 04:43:23;;;;;;;2.42;0.80;;;;;;;;;;5064372;28;20097;-75
2021/09/28 04:46:08;;;;;;;2.55;0.95;;;;;;;;;;5066439;28;20046;-75
2021/09/28 04:48:52;;;;;;;2.10;0.68;;;;;;;;;;5053646;28;20045;-76
2021/09/28 04:51:37;;;;;;;4.38;0.98;;;;;;;;;;5044276;28;20505;-76
2021/09/28 04:54:22;;;;;;;4.10;0.85;;;;;;;;;;5057229;28;20622;-76
2021/09/28 04:57:06;;;;;;;2.10;0.77;;;;;;;;;;5064000;28;20174;-76
2021/09/28 04:59:51;;;;;;;2.60;0.68;;;;;;;;;;5045908;28;20040;-76
2021/09/28 05:02:36;;;;;;;3.75;1.00;;;;;;;;;;5044985;28;20063;-76
2021/09/28 05:05:20;;;;;;;3.08;0.90;;;;;;;;;;5044292;28;20746;-76
2021/09/28 05:08:05;;;;;;;2.75;0.90;;;;;;;;;;5046654;28;20046;-77
2021/09/28 05:10:50;;;;;;;2.63;0.77;;;;;;;;;;5037751;28;20437;-77
2021/09/28 05:13:34;;;;;;;3.42;0.95;;;;;;;;;;5048413;28;20150;-76
2021/09/28 05:16:20;;;;;;;2.63;1.15;;;;;;;;;;5061707;28;20081;-76
2021/09/28 05:19:05;;;;;;;4.78;0.75;;;;;;;;;;5054962;28;20180;-76
2021/09/28 05:21:50;;;;;;;3.80;1.17;;;;;;;;;;5043295;28;20048;-76
2021/09/28 05:24:35;;;;;;;2.20;0.73;;;;;;;;;;5058778;28;20067;-77
2021/09/28 05:27:19;;;;;;;4.45;1.02;;;;;;;;;;5048240;28;20113;-77
2021/09/28 05:30:04;;;;;;;3.33;0.95;;;;;;;;;;5048693;28;20044;-76
2021/09/28 05:32:49;;;;;;;5.35;1.25;;;;;;;;;;5048470;28;20778;-76
2021/09/28 05:35:34;;;;;;;2.28;0.90;;;;;;;;;;5047823;28;20067;-76
2021/09/28 05:38:18;;;;;;;4.13;1.15;;;;;;;;;;5047381;28;20047;-76
2021/09/28 05:41:08;;;;;;;4.57;1.00;;;;;;;;;;5061790;28;20186;-76
2021/09/28 05:43:53;;;;;;;3.88;0.90;;;;;;;;;;5077508;28;20513;-76
2021/09/28 05:46:38;;;;;;;3.30;1.15;;;;;;;;;;5067349;28;20038;-76
2021/09/28 05:49:23;;;;;;;2.75;1.08;;;;;;;;;;5047768;28;20135;-76
2021/09/28 05:52:11;;;;;;;5.65;1.00;;;;;;;;;;5048711;28;20148;-76
2021/09/28 05:54:56;;;;;;;3.28;0.90;;;;;;;;;;5074568;28;20050;-76
2021/09/28 05:57:41;;;;;;;3.88;1.30;;;;;;;;;;5075447;28;20032;-76
2021/09/28 06:00:26;;;;;;;4.55;0.90;;;;;;;;;;5061877;28;20067;-76
2021/09/28 06:03:11;;;;;;;2.45;0.88;;;;;;;;;;5053980;28;20063;-77
2021/09/28 06:05:55;;;;;;;2.85;1.10;;;;;;;;;;5053593;28;20504;-76
2021/09/28 06:08:40;;;;;;;2.85;1.13;;;;;;;;;;5046803;28;20222;-76
2021/09/28 06:11:25;;;;;;;3.47;1.00;;;;;;;;;;5051453;28;20142;-76
2021/09/28 06:14:10;;;;;;;3.03;0.98;;;;;;;;;;5051140;28;20108;-76
2021/09/28 06:16:54;;;;;;;2.55;1.00;;;;;;;;;;5047794;28;20047;-76
2021/09/28 06:19:39;;;;;;;3.00;0.90;;;;;;;;;;5065001;28;20107;-76
2021/09/28 06:22:25;;;;;;;3.75;0.93;;;;;;;;;;5048304;28;20052;-76
2021/09/28 06:25:10;;;;;;;3.63;0.90;;;;;;;;;;5059633;28;20842;-76
2021/09/28 06:27:55;;;;;;;5.28;1.35;;;;;;;;;;5049058;28;20127;-76
2021/09/28 06:30:39;;;;;;;2.55;0.80;;;;;;;;;;5064179;28;20035;-76
2021/09/28 06:33:24;;;;;;;3.47;0.82;;;;;;;;;;5067477;28;20114;-76
2021/09/28 06:36:09;;;;;;;3.70;1.17;;;;;;;;;;5033663;28;20135;-76
2021/09/28 06:38:53;;;;;;;2.72;0.80;;;;;;;;;;5051297;28;20102;-76
2021/09/28 06:41:38;;;;;;;2.47;0.80;;;;;;;;;;5059271;28;20044;-77
2021/09/28 06:44:22;;;;;;;3.33;0.90;;;;;;;;;;5055637;28;20060;-76
2021/09/28 06:47:07;;;;;;;3.45;1.00;;;;;;;;;;5051615;28;20110;-76
2021/09/28 06:49:52;;;;;;;3.35;0.70;;;;;;;;;;5050099;28;20132;-76
2021/09/28 06:52:37;;;;;;;4.15;0.70;;;;;;;;;;5051181;28;20047;-76
2021/09/28 06:55:21;;;;;;;3.75;0.88;;;;;;;;;;5054705;28;20048;-76
2021/09/28 06:58:06;;;;;;;1.67;0.80;;;;;;;;;;5057293;28;20047;-77
2021/09/28 07:00:51;;;;;;;3.42;0.80;;;;;;;;;;5046309;28;20052;-75
2021/09/28 07:03:35;;;;;;;3.30;0.88;;;;;;;;;;5065824;28;20059;-76
2021/09/28 07:06:21;;;;;;;3.45;0.93;;;;;;;;;;5057859;28;20032;-76
2021/09/28 07:09:06;;;;;;;2.88;0.80;;;;;;;;;;5062807;28;20039;-76
2021/09/28 07:11:50;;;;;;;5.63;0.90;;;;;;;;;;5066103;28;20558;-76
2021/09/28 07:14:35;;;;;;;3.88;1.08;;;;;;;;;;5044015;28;20043;-76
2021/09/28 07:17:19;;;;;;;3.00;0.77;;;;;;;;;;5064155;28;20098;-77
2021/09/28 07:20:04;;;;;;;1.88;0.70;;;;;;;;;;5048357;28;20082;-76
2021/09/28 07:22:49;;;;;;;2.25;1.08;;;;;;;;;;5064987;28;20056;-76
2021/09/28 07:25:33;;;;;;;2.22;0.80;;;;;;;;;;5061571;28;20048;-76
2021/09/28 07:28:18;;;;;;;2.47;0.90;;;;;;;;;;5051055;28;20046;-76
2021/09/28 07:31:03;;;;;;;3.65;0.95;;;;;;;;;;5046511;28;20549;-76
2021/09/28 07:33:47;;;;;;;2.97;0.80;;;;;;;;;;5050494;28;20039;-77
2021/09/28 07:36:32;;;;;;;3.92;0.90;;;;;;;;;;5064759;28;20126;-76
2021/09/28 07:39:16;;;;;;;2.63;0.80;;;;;;;;;;5061816;28;20083;-76
2021/09/28 07:42:01;;;;;;;1.83;0.98;;;;;;;;;;5054358;28;20516;-76
2021/09/28 07:44:46;;;;;;;4.00;1.13;;;;;;;;;;5050659;28;20058;-76
2021/09/28 07:47:31;;;;;;;3.38;0.70;;;;;;;;;;5045580;28;20047;-76
2021/09/28 07:50:18;;;;;;;5.00;1.00;;;;;;;;;;5042278;28;20093;-76
2021/09/28 07:53:06;;;;;;;2.55;0.90;;;;;;;;;;5035053;28;20034;-76
2021/09/28 07:55:50;;;;;;;2.83;0.80;;;;;;;;;;5058571;28;20047;-76
2021/09/28 07:58:35;;;;;;;2.58;0.85;;;;;;;;;;5057032;28;21749;-76
2021/09/28 08:01:19;;;;;;;3.55;0.90;;;;;;;;;;5043154;28;20090;-75
2021/09/28 08:04:04;;;;;;;1.35;0.80;;;;;;;;;;5045670;28;20125;-76
2021/09/28 08:06:49;;;;;;;5.25;0.80;;;;;;;;;;5050347;28;20043;-76
2021/09/28 08:09:34;;;;;;;3.40;0.80;;;;;;;;;;5047412;28;20071;-77
2021/09/28 08:12:18;;;;;;;2.22;1.10;;;;;;;;;;5044676;28;20549;-75
2021/09/28 08:15:03;;;;;;;3.25;0.80;;;;;;;;;;5089266;27;20150;-77
2021/09/28 08:17:48;;;;;;;4.13;0.85;;;;;;;;;;5055601;28;20048;-77
2021/09/28 08:20:32;;;;;;;2.92;0.90;;;;;;;;;;5048711;28;20040;-73
2021/09/28 08:23:17;;;;;;;1.95;0.80;;;;;;;;;;5060987;28;20062;-78
2021/09/28 08:29:08;;;;;;;2.03;0.90;;;;;;;;;;5058810;28;20117;-77
2021/09/28 08:29:09;;;;;;;2.30;0.70;;;;;;;;;;5057636;28;20079;-76
2021/09/28 08:31:53;;;;;;;2.95;1.05;;;;;;;;;;5059963;28;20039;-76
2021/09/28 08:34:38;;;;;;;3.42;1.25;;;;;;;;;;5059442;28;20508;-76
2021/09/28 08:37:24;;;;;;;2.10;1.00;;;;;;;;;;5048571;28;20450;-76
2021/09/28 08:40:11;;;;;;;2.78;0.80;;;;;;;;;;5063461;28;20043;-77
2021/09/28 08:42:56;;;;;;;2.40;0.98;;;;;;;;;;5057252;28;20578;-76
2021/09/28 08:45:44;;;;;;;3.00;1.27;;;;;;;;;;5045186;28;20032;-76
2021/09/28 08:48:29;;;;;;;2.08;0.80;;;;;;;;;;5042630;28;20730;-77
2021/09/28 08:51:14;;;;;;;2.40;0.80;;;;;;;;;;5056585;28;20512;-76
2021/09/28 08:53:59;;;;;;;1.90;0.80;;;;;;;;;;5048234;28;20116;-76
2021/09/28 08:56:43;;;;;;;1.85;0.82;;;;;;;;;;5055495;28;20066;-76
2021/09/28 08:59:41;;;;;;;2.13;0.85;;;;;;;;;;5057066;28;20096;-77
2021/09/28 09:02:55;;;;;;;1.67;0.80;;;;;;;;;;5051328;28;20831;-77
2021/09/28 09:05:47;;;;;;;2.60;0.82;;;;;;;;;;5040792;28;20048;-77
2021/09/28 09:08:35;;;;;;;1.73;1.05;;;;;;;;;;5044677;28;20062;-77
2021/09/28 09:11:21;;;;;;;2.63;1.25;;;;;;;;;;5061196;28;20082;-77
2021/09/28 09:14:16;;;;;;;2.78;0.90;;;;;;;;;;5045737;28;20047;-77
2021/09/28 09:17:00;;;;;;;2.42;0.80;;;;;;;;;;5063591;28;20135;-77
2021/09/28 09:19:45;;;;;;;2.15;0.80;;;;;;;;;;5062305;28;20845;-76
2021/09/28 09:22:30;;;;;;;2.10;0.80;;;;;;;;;;5048395;28;20543;-76
2021/09/28 09:25:22;;;;;;;2.25;0.70;;;;;;;;;;5042698;28;20063;-75
2021/09/28 09:28:30;;;;;;;2.15;0.70;;;;;;;;;;5063832;28;20055;-76
2021/09/28 09:31:15;;;;;;;2.53;0.93;;;;;;;;;;5044863;28;20043;-77
2021/09/28 09:34:10;;;;;;;2.47;0.70;;;;;;;;;;5044252;28;20720;-76
2021/09/28 09:36:58;;;;;;;1.95;0.70;;;;;;;;;;5063043;28;20082;-77
2021/09/28 09:39:46;;;;;;;1.88;0.80;;;;;;;;;;5059906;28;20043;-77
2021/09/28 09:42:30;;;;;;;1.60;0.60;;;;;;;;;;5072536;28;20047;-77
2021/09/28 09:45:24;;;;;;;2.30;0.80;;;;;;;;;;5049960;28;20075;-76
2021/09/28 09:48:29;;;;;;;2.38;1.10;;;;;;;;;;5060975;28;20114;-77
2021/09/28 09:51:17;;;;;;;2.15;0.88;;;;;;;;;;5068879;28;20043;-76
2021/09/28 09:54:02;;;;;;;1.35;0.68;;;;;;;;;;5043310;28;20098;-76
2021/09/28 09:56:50;;;;;;;1.25;0.70;;;;;;;;;;5059908;28;20039;-75
2021/09/28 09:59:35;;;;;;;1.98;0.70;;;;;;;;;;5054650;28;20062;-75
2021/09/28 10:02:20;;;;;;;2.17;0.70;;;;;;;;;;5053807;28;20197;-75
2021/09/28 10:05:05;;;;;;;3.15;0.70;;;;;;;;;;5050498;28;20170;-76
2021/09/28 10:07:50;;;;;;;2.75;0.90;;;;;;;;;;5052640;28;20172;-75
2021/09/28 10:10:34;;;;;;;2.55;0.70;;;;;;;;;;5065486;28;20077;-77
2021/09/28 10:13:56;;;;;;;2.95;0.70;;;;;;;;;;5069154;28;20102;-76
2021/09/28 10:16:42;;;;;;;2.70;0.68;;;;;;;;;;5024619;28;20422;-77
2021/09/28 10:19:27;;;;;;;1.48;0.80;;;;;;;;;;5079704;28;20043;-76
2021/09/28 10:22:35;;;;;;;1.20;0.70;;;;;;;;;;5065721;28;20044;-76
2021/09/28 10:25:22;;;;;;;2.00;0.95;;;;;;;;;;5068034;28;20135;-75
2021/09/28 10:28:07;;;;;;;1.83;0.60;;;;;;;;;;5064094;28;20031;-75
2021/09/28 10:30:52;;;;;;;2.55;0.82;;;;;;;;;;5066402;28;20101;-75
2021/09/28 10:33:36;;;;;;;1.67;0.60;;;;;;;;;;5063482;28;20575;-77
2021/09/28 10:36:25;;;;;;;1.33;0.70;;;;;;;;;;5062310;28;20039;-76
2021/09/28 10:39:09;;;;;;;2.53;0.90;;;;;;;;;;5069166;28;20519;-76
2021/09/28 10:42:00;;;;;;;1.73;0.70;;;;;;;;;;5057330;28;20663;-75
2021/09/28 10:44:47;;;;;;;1.88;0.70;;;;;;;;;;5054734;28;20503;-76
2021/09/28 10:47:48;;;;;;;1.27;0.50;;;;;;;;;;5045998;28;20368;-77
2021/09/28 10:50:37;;;;;;;3.77;0.90;;;;;;;;;;5047907;28;20040;-74
2021/09/28 10:53:21;;;;;;;2.47;0.70;;;;;;;;;;5072189;28;20315;-74
2021/09/28 10:56:10;;;;;;;1.40;0.68;;;;;;;;;;5066009;28;20156;-76
2021/09/28 10:59:02;;;;;;;1.67;0.70;;;;;;;;;;5077076;28;20074;-74
2021/09/28 11:02:05;;;;;;;1.27;0.57;;;;;;;;;;5069825;28;20050;-75
2021/09/28 11:05:08;;;;;;;1.67;0.70;;;;;;;;;;5079291;28;20055;-75
2021/09/28 11:07:52;;;;;;;;;;;;;;;;;;5053852;28;20048;-73
2021/09/28 11:10:37;;;;;;;1.65;0.60;;;;;;;;;;5055323;28;19969;-75
2021/09/28 11:13:27;;;;;;;1.75;0.70;;;;;;;;;;5055625;28;20125;-75
2021/09/28 11:16:12;;;;;;;1.27;0.73;;;;;;;;;;5045231;28;20191;-75
2021/09/28 11:18:58;;;;;;;2.15;0.60;;;;;;;;;;5081143;28;20051;-76
2021/09/28 11:21:44;;;;;;;1.23;0.70;;;;;;;;;;5085692;28;20043;-75
2021/09/28 11:24:30;;;;;;;1.70;0.60;;;;;;;;;;5085092;28;20074;-75
2021/09/28 11:27:15;;;;;;;1.73;0.60;;;;;;;;;;5086890;28;20038;-75
2021/09/28 11:30:00;;;;;;;2.17;0.73;;;;;;;;;;5065286;28;20036;-75
2021/09/28 11:32:55;;;;;;;3.85;0.73;;;;;;;;;;5071053;28;20061;-76
2021/09/28 11:35:40;;;;;;;2.97;0.80;;;;;;;;;;5086821;28;20768;-75
2021/09/28 11:38:28;;;;;;;1.13;0.65;;;;;;;;;;5066373;28;20109;-75
2021/09/28 11:41:13;;;;;;;1.88;0.60;;;;;;;;;;5067291;28;20133;-75
2021/09/28 11:43:58;;;;;;;1.60;0.80;;;;;;;;;;5067467;28;20146;-74
2021/09/28 11:46:43;;;;;;;1.23;0.60;;;;;;;;;;5072710;28;20045;-75
2021/09/28 11:49:28;;;;;;;2.72;0.80;;;;;;;;;;5079071;28;20066;-75
2021/09/28 11:52:12;;;;;;;2.28;1.17;;;;;;;;;;5065329;28;20062;-74
2021/09/28 11:54:57;;;;;;;3.83;0.70;;;;;;;;;;5082233;28;20109;-75
2021/09/28 11:57:42;;;;;;;2.95;0.90;;;;;;;;;;5065882;28;20043;-75
2021/09/28 12:00:28;;;;;;;2.58;0.70;;;;;;;;;;5070666;28;20040;-75
2021/09/28 12:03:13;;;;;;;1.67;0.70;;;;;;;;;;5080295;28;20055;-75
2021/09/28 12:06:06;;;;;;;1.75;0.73;;;;;;;;;;5065219;28;20043;-76
2021/09/28 12:08:50;;;;;;;2.30;0.80;;;;;;;;;;5067017;28;20047;-75
2021/09/28 12:11:37;;;;;;;1.02;0.52;;;;;;;;;;5069081;28;20043;-75
2021/09/28 12:14:35;;;;;;;1.40;0.80;;;;;;;;;;5064948;28;20067;-73
2021/09/28 12:17:20;;;;;;;1.02;0.70;;;;;;;;;;5064206;28;20093;-73
2021/09/28 12:20:08;;;;;;;2.60;0.70;;;;;;;;;;5075169;28;20042;-75
2021/09/28 12:22:58;;;;;;;2.15;0.70;;;;;;;;;;5084302;28;20069;-76
2021/09/28 12:25:44;;;;;;;1.42;0.70;;;;;;;;;;5066938;28;20059;-74
2021/09/28 12:28:32;;;;;;;1.40;0.70;;;;;;;;;;5083857;28;20092;-74
2021/09/28 12:31:17;;;;;;;2.88;0.70;;;;;;;;;;5084738;28;20415;-74
2021/09/28 12:34:01;;;;;;;2.03;0.65;;;;;;;;;;5061030;28;20059;-75
2021/09/28 12:36:46;;;;;;;1.20;0.60;;;;;;;;;;5048407;28;20081;-73
2021/09/28 12:39:30;;;;;;;1.42;0.90;;;;;;;;;;5048487;28;20040;-74
2021/09/28 12:42:20;;;;;;;1.17;0.60;;;;;;;;;;5060087;28;20070;-73
2021/09/28 12:45:06;;;;;;;1.73;0.60;;;;;;;;;;5057214;28;20504;-73
2021/09/28 12:47:58;;;;;;;3.72;0.75;;;;;;;;;;5034927;28;20573;-74
2021/09/28 12:50:43;;;;;;;2.22;1.10;;;;;;;;;;5060398;28;20086;-72
2021/09/28 12:53:28;;;;;;;3.85;0.73;;;;;;;;;;5053958;28;20047;-72
2021/09/28 12:56:13;;;;;;;1.65;0.80;;;;;;;;;;5061203;28;20562;-73
2021/09/28 12:58:57;;;;;;;4.00;1.00;;;;;;;;;;5079666;28;20093;-73
2021/09/28 13:01:45;;;;;;;3.25;0.73;;;;;;;;;;5083115;28;20472;-72
2021/09/28 13:04:30;;;;;;;4.82;1.00;;;;;;;;;;5072436;28;20056;-71
2021/09/28 13:07:16;;;;;;;2.35;0.70;;;;;;;;;;5054673;28;20093;-73
2021/09/28 13:10:01;;;;;;;3.58;0.80;;;;;;;;;;5074459;28;20098;-73
2021/09/28 13:12:48;;;;;;;2.88;0.80;;;;;;;;;;5065573;28;20112;-72
2021/09/28 13:15:33;;;;;;;1.25;0.70;;;;;;;;;;5077262;28;20074;-72
2021/09/28 13:18:18;;;;;;;1.35;0.70;;;;;;;;;;5071241;28;20103;-73
2021/09/28 13:21:03;;;;;;;3.20;1.02;;;;;;;;;;5073537;28;20043;-72
2021/09/28 13:23:48;;;;;;;1.50;0.60;;;;;;;;;;5067485;28;20218;-73
2021/09/28 13:26:33;;;;;;;1.80;0.70;;;;;;;;;;5046541;28;20036;-72
2021/09/28 13:29:17;;;;;;;1.67;0.70;;;;;;;;;;5070666;28;20036;-70
2021/09/28 13:32:04;;;;;;;2.28;1.05;;;;;;;;;;5067736;28;20036;-72
2021/09/28 13:34:49;;;;;;;2.58;0.70;;;;;;;;;;5067894;28;21422;-69
2021/09/28 13:37:33;;;;;;;1.58;0.77;;;;;;;;;;5049688;28;20500;-71
2021/09/28 13:40:18;;;;;;;3.55;0.90;;;;;;;;;;5047020;28;20043;-72
2021/09/28 13:43:04;;;;;;;1.77;0.60;;;;;;;;;;5051765;28;20052;-73
2021/09/28 13:45:48;;;;;;;1.67;0.82;;;;;;;;;;5049053;28;20140;-74
2021/09/28 13:48:33;;;;;;;2.58;0.90;;;;;;;;;;5047566;28;20045;-74
2021/09/28 13:51:17;;;;;;;2.80;0.73;;;;;;;;;;5066884;28;20421;-74
2021/09/28 13:54:03;;;;;;;2.72;1.13;;;;;;;;;;5068371;28;20062;-74
2021/09/28 13:56:48;;;;;;;1.52;0.80;;;;;;;;;;5055473;28;20092;-74
2021/09/28 13:59:33;;;;;;;1.88;0.75;;;;;;;;;;5071856;28;20041;-74
2021/09/28 14:02:17;;;;;;;1.63;0.55;;;;;;;;;;5059633;28;20047;-75
2021/09/28 14:05:02;;;;;;;1.90;0.90;;;;;;;;;;5053494;28;20042;-75
2021/09/28 14:07:46;;;;;;;2.28;0.90;;;;;;;;;;5054269;28;20102;-75
2021/09/28 14:10:31;;;;;;;1.98;0.85;;;;;;;;;;5073143;28;20044;-76
2021/09/28 14:13:15;;;;;;;1.40;0.60;;;;;;;;;;5077331;28;20039;-76
2021/09/28 14:16:00;;;;;;;1.55;0.70;;;;;;;;;;5086760;28;20038;-76
2021/09/28 14:18:44;;;;;;;1.27;0.70;;;;;;;;;;5068836;28;20043;-76
2021/09/28 14:21:29;;;;;;;1.73;0.70;;;;;;;;;;5068816;28;20052;-75
2021/09/28 14:24:13;;;;;;;1.80;0.80;;;;;;;;;;5059046;28;20110;-76
2021/09/28 14:26:58;;;;;;;2.08;0.70;;;;;;;;;;5059230;28;20086;-76
2021/09/28 14:29:43;;;;;;;2.33;0.73;;;;;;;;;;5046207;28;20040;-76
2021/09/28 14:32:27;;;;;;;2.83;0.80;;;;;;;;;;5061866;28;20460;-76
2021/09/28 14:35:12;;;;;;;1.25;0.73;;;;;;;;;;5072171;28;20089;-76
2021/09/28 14:37:56;;;;;;;2.17;0.82;;;;;;;;;;5051439;28;20039;-76
2021/09/28 14:40:40;;;;;;;1.23;0.60;;;;;;;;;;5056200;28;20042;-76
2021/09/28 14:43:25;;;;;;;2.45;0.80;;;;;;;;;;5061810;28;20187;-76
2021/09/28 14:46:09;;;;;;;2.30;0.75;;;;;;;;;;5056577;28;20567;-76
2021/09/28 14:48:54;;;;;;;1.38;0.70;;;;;;;;;;5084428;28;20074;-76
2021/09/28 14:51:38;;;;;;;0.93;0.68;;;;;;;;;;5061758;28;20090;-76
2021/09/28 14:54:26;;;;;;;1.30;0.77;;;;;;;;;;5056946;28;20107;-76
2021/09/28 14:57:11;;;;;;;1.92;0.98;;;;;;;;;;5047074;28;20039;-76
2021/09/28 14:59:56;;;;;;;2.80;0.80;;;;;;;;;;5047842;28;20475;-76
2021/09/28 15:02:40;;;;;;;2.78;0.70;;;;;;;;;;5069957;28;20047;-76
2021/09/28 15:05:28;;;;;;;2.58;0.90;;;;;;;;;;5054498;28;20103;-76
2021/09/28 15:08:13;;;;;;;0.93;0.60;;;;;;;;;;5049851;28;20505;-76
2021/09/28 15:10:58;;;;;;;0.95;0.70;;;;;;;;;;5062786;28;20094;-76
2021/09/28 15:13:43;;;;;;;1.42;0.73;;;;;;;;;;5050470;28;20131;-76
2021/09/28 15:16:28;;;;;;;1.83;0.90;;;;;;;;;;5056287;28;20102;-76
2021/09/28 15:19:12;;;;;;;1.35;0.70;;;;;;;;;;5053541;28;20044;-74
2021/09/28 15:21:57;;;;;;;1.67;0.70;;;;;;;;;;5070733;28;20280;-74
2021/09/28 15:24:42;;;;;;;1.73;0.75;;;;;;;;;;5079789;28;20051;-74
2021/09/28 15:27:26;;;;;;;0.90;0.60;;;;;;;;;;5060508;28;20039;-75
2021/09/28 15:30:11;;;;;;;1.63;0.70;;;;;;;;;;5064866;28;20094;-75
2021/09/28 15:32:56;;;;;;;0.95;0.65;;;;;;;;;;5064101;28;20797;-76
2021/09/28 15:35:41;;;;;;;0.95;0.70;;;;;;;;;;5064007;28;20114;-75
2021/09/28 15:38:46;;;;;;;1.70;0.77;;;;;;;;;;5066615;28;20498;-76
2021/09/28 15:41:30;;;;;;;1.98;0.70;;;;;;;;;;5073544;28;20038;-75
2021/09/28 15:44:15;;;;;;;0.98;0.60;;;;;;;;;;5066232;28;20075;-76
2021/09/28 15:46:59;;;;;;;1.02;0.68;;;;;;;;;;5064901;28;20597;-76
2021/09/28 15:49:44;;;;;;;2.05;0.80;;;;;;;;;;5050011;28;20099;-77
2021/09/28 15:52:29;;;;;;;2.22;0.70;;;;;;;;;;5064302;28;20119;-74
2021/09/28 15:55:13;;;;;;;1.95;0.90;;;;;;;;;;5068319;28;20093;-75
2021/09/28 15:57:58;;;;;;;1.23;0.60;;;;;;;;;;5071532;28;20054;-75
2021/09/28 16:00:42;;;;;;;2.15;0.85;;;;;;;;;;5083935;28;20532;-75
2021/09/28 16:03:27;;;;;;;1.63;0.70;;;;;;;;;;5067509;28;20079;-75
2021/09/28 16:06:11;;;;;;;1.48;0.70;;;;;;;;;;5061458;28;20043;-76
2021/09/28 16:08:57;;;;;;;1.75;0.70;;;;;;;;;;5058045;28;20221;-76
2021/09/28 16:11:42;;;;;;;1.42;0.88;;;;;;;;;;5070847;28;20106;-76
2021/09/28 16:14:26;;;;;;;1.25;0.60;;;;;;;;;;5081372;28;20117;-76
2021/09/28 16:17:11;;;;;;;1.63;0.70;;;;;;;;;;5075214;28;20090;-76
2021/09/28 16:19:56;;;;;;;1.35;0.70;;;;;;;;;;5069033;28;20151;-76
2021/09/28 16:22:40;;;;;;;1.13;0.70;;;;;;;;;;5084868;28;20071;-75
2021/09/28 16:25:25;;;;;;;1.75;0.70;;;;;;;;;;5083537;28;20088;-76
2021/09/28 16:28:09;;;;;;;1.25;0.70;;;;;;;;;;5084136;28;20117;-76
2021/09/28 16:30:54;;;;;;;1.23;0.80;;;;;;;;;;5076501;28;20070;-76
2021/09/28 16:33:38;;;;;;;1.50;0.77;;;;;;;;;;5062961;28;20039;-76